createdAt,value
2022-08-30T00:00:15.498Z,77.07
2022-08-30T00:04:40.738Z,76.96
2022-08-30T00:08:50.268Z,77.39
2022-08-30T00:12:58.601Z,77.42
2022-08-30T00:17:07.159Z,77.68
2022-08-30T00:21:15.854Z,77.62
2022-08-30T00:25:23.790Z,77.42
2022-08-30T00:29:31.755Z,77.59
2022-08-30T00:33:40.455Z,77.86
2022-08-30T00:37:48.534Z,78.05
2022-08-30T00:41:56.332Z,77.92
2022-08-30T00:46:04.860Z,77.97
2022-08-30T00:50:14.653Z,78.08
2022-08-30T00:54:23.865Z,78.18
2022-08-30T00:58:37.514Z,78.06
2022-08-30T01:02:45.877Z,78.01
2022-08-30T01:06:57.099Z,78.23
2022-08-30T01:11:05.117Z,78.35
2022-08-30T01:15:15.912Z,78.44
2022-08-30T01:19:37.669Z,78.57
2022-08-30T01:23:47.836Z,78.74
2022-08-30T01:27:59.212Z,78.86
2022-08-30T01:32:11.940Z,78.90
2022-08-30T01:36:22.297Z,78.89
2022-08-30T01:40:30.599Z,79.13
2022-08-30T01:44:38.634Z,79.21
2022-08-30T01:48:53.052Z,79.25
2022-08-30T01:53:02.277Z,79.37
2022-08-30T01:57:11.743Z,79.50
2022-08-30T02:01:22.009Z,79.56
2022-08-30T02:05:30.218Z,79.45
2022-08-30T02:09:39.538Z,79.49
2022-08-30T02:13:48.814Z,79.74
2022-08-30T02:17:56.517Z,79.81
2022-08-30T02:22:04.425Z,79.86
2022-08-30T02:26:13.703Z,80.07
2022-08-30T02:30:21.554Z,80.05
2022-08-30T02:34:29.100Z,80.24
2022-08-30T02:38:38.088Z,80.38
2022-08-30T02:42:45.857Z,80.45
2022-08-30T02:46:54.686Z,80.50
2022-08-30T02:51:11.502Z,80.68
2022-08-30T02:55:20.209Z,80.71
2022-08-30T02:59:28.532Z,80.80
2022-08-30T03:03:36.728Z,80.85
2022-08-30T03:07:47.740Z,80.96
2022-08-30T03:11:56.232Z,80.85
2022-08-30T03:16:04.529Z,80.99
2022-08-30T03:20:14.251Z,81.00
2022-08-30T03:24:22.402Z,80.76
2022-08-30T03:28:31.058Z,80.82
2022-08-30T03:32:38.910Z,80.71
2022-08-30T03:36:48.769Z,80.73
2022-08-30T03:40:57.825Z,80.66
2022-08-30T03:45:09.147Z,80.65
2022-08-30T03:49:19.451Z,80.66
2022-08-30T03:53:27.185Z,80.86
2022-08-30T03:57:36.708Z,81.08
2022-08-30T04:01:46.356Z,81.41
2022-08-30T04:05:55.488Z,81.52
2022-08-30T04:10:03.122Z,81.58
2022-08-30T04:14:11.962Z,81.59
2022-08-30T04:18:20.087Z,81.63
2022-08-30T04:22:27.748Z,81.89
2022-08-30T04:26:35.469Z,81.81
2022-08-30T04:30:44.426Z,81.72
2022-08-30T04:34:52.241Z,81.81
2022-08-30T04:39:01.555Z,81.83
2022-08-30T04:43:09.558Z,81.84
2022-08-30T04:47:18.965Z,81.82
2022-08-30T04:51:26.782Z,81.69
2022-08-30T04:55:38.725Z,81.50
2022-08-30T04:59:47.858Z,81.34
2022-08-30T05:03:56.888Z,81.05
2022-08-30T05:08:07.406Z,80.87
2022-08-30T05:12:17.728Z,80.63
2022-08-30T05:16:25.312Z,80.62
2022-08-30T05:20:33.249Z,80.41
2022-08-30T05:24:41.201Z,80.34
2022-08-30T05:28:49.653Z,80.30
2022-08-30T05:33:05.658Z,80.21
2022-08-30T05:37:15.805Z,80.11
2022-08-30T05:41:31.992Z,80.16
2022-08-30T05:45:43.250Z,79.96
2022-08-30T05:49:54.180Z,79.88
2022-08-30T05:54:10.660Z,79.75
2022-08-30T05:58:26.050Z,79.93
2022-08-30T06:02:36.617Z,79.83
2022-08-30T06:06:48.130Z,79.74
2022-08-30T06:11:00.169Z,79.55
2022-08-30T06:15:20.021Z,79.57
2022-08-30T06:19:30.622Z,79.47
2022-08-30T06:23:38.626Z,79.39
2022-08-30T06:27:46.712Z,79.41
2022-08-30T06:31:57.906Z,79.48
2022-08-30T06:36:11.594Z,79.24
2022-08-30T06:40:21.912Z,78.92
2022-08-30T06:44:29.477Z,78.89
2022-08-30T06:48:38.210Z,78.67
2022-08-30T06:52:48.097Z,78.57
2022-08-30T06:57:00.140Z,78.29
2022-08-30T07:01:17.496Z,78.27
2022-08-30T07:05:28.021Z,78.40
2022-08-30T07:09:43.460Z,77.93
2022-08-30T07:13:52.622Z,77.90
2022-08-30T07:18:17.904Z,77.69
2022-08-30T07:22:28.370Z,77.33
2022-08-30T07:26:37.590Z,77.39
2022-08-30T07:30:47.803Z,77.12
2022-08-30T07:35:00.261Z,77.06
2022-08-30T07:39:11.044Z,76.18
2022-08-30T07:43:19.185Z,75.87
2022-08-30T07:47:28.098Z,75.88
2022-08-30T07:51:37.534Z,75.57
2022-08-30T07:55:45.774Z,75.22
2022-08-30T07:59:54.279Z,75.07
2022-08-30T08:04:05.187Z,74.68
2022-08-30T08:08:22.468Z,74.18
2022-08-30T08:12:30.284Z,74.04
2022-08-30T08:16:42.527Z,74.29
2022-08-30T08:20:54.804Z,74.38
2022-08-30T08:25:10.902Z,74.37
2022-08-30T08:29:30.309Z,74.11
2022-08-30T08:33:39.509Z,72.92
2022-08-30T08:37:54.726Z,72.85
2022-08-30T08:42:10.555Z,72.83
2022-08-30T08:46:27.380Z,72.31
2022-08-30T08:50:38.873Z,71.92
2022-08-30T08:55:09.546Z,71.68
2022-08-30T08:59:21.201Z,71.56
2022-08-30T09:03:33.349Z,71.68
2022-08-30T09:07:48.765Z,71.55
2022-08-30T09:12:04.353Z,71.08
2022-08-30T09:16:22.554Z,71.08
2022-08-30T09:20:37.669Z,70.92
2022-08-30T09:24:51.558Z,70.47
2022-08-30T09:29:01.067Z,69.82
2022-08-30T09:33:20.861Z,69.03
2022-08-30T09:37:36.467Z,69.31
2022-08-30T09:41:45.413Z,69.19
2022-08-30T09:46:09.250Z,69.03
2022-08-30T09:50:18.649Z,68.14
2022-08-30T09:54:34.122Z,67.96
2022-08-30T09:58:57.285Z,66.86
2022-08-30T10:03:35.362Z,67.39
2022-08-30T10:07:50.605Z,65.58
2022-08-30T10:12:07.776Z,64.61
2022-08-30T10:16:27.533Z,65.35
2022-08-30T10:20:42.004Z,63.71
2022-08-30T10:24:52.177Z,63.01
2022-08-30T10:29:04.186Z,63.47
2022-08-30T10:33:16.049Z,62.86
2022-08-30T10:37:28.183Z,62.13
2022-08-30T10:41:41.350Z,61.80
2022-08-30T10:45:53.636Z,62.37
2022-08-30T10:50:11.693Z,60.51
2022-08-30T10:54:23.429Z,60.36
2022-08-30T10:58:33.788Z,60.23
2022-08-30T11:03:08.660Z,60.70
2022-08-30T11:07:27.490Z,60.75
2022-08-30T11:11:46.643Z,59.56
2022-08-30T11:16:03.331Z,57.51
2022-08-30T11:20:30.025Z,57.61
2022-08-30T11:25:09.854Z,57.10
2022-08-30T11:29:37.058Z,56.95
2022-08-30T11:33:47.593Z,57.11
2022-08-30T11:37:57.548Z,55.39
2022-08-30T11:42:15.392Z,54.20
2022-08-30T11:46:36.336Z,54.36
2022-08-30T11:50:54.679Z,54.88
2022-08-30T11:55:14.023Z,55.06
2022-08-30T11:59:30.394Z,54.09
2022-08-30T12:03:39.121Z,53.56
2022-08-30T12:08:01.470Z,52.24
2022-08-30T12:12:10.847Z,52.73
2022-08-30T12:16:21.183Z,50.25
2022-08-30T12:20:30.986Z,50.40
2022-08-30T12:24:44.323Z,50.56
2022-08-30T12:28:53.048Z,50.06
2022-08-30T12:33:01.057Z,48.53
2022-08-30T12:37:12.052Z,48.84
2022-08-30T12:41:23.691Z,48.82
2022-08-30T12:45:33.689Z,48.83
2022-08-30T12:49:46.507Z,48.39
2022-08-30T12:53:53.959Z,48.73
2022-08-30T12:58:05.489Z,49.64
2022-08-30T13:02:20.114Z,49.51
2022-08-30T13:06:45.832Z,49.39
2022-08-30T13:10:56.872Z,49.47
2022-08-30T13:15:19.071Z,48.66
2022-08-30T13:19:35.270Z,48.22
2022-08-30T13:23:43.219Z,47.34
2022-08-30T13:27:51.594Z,47.62
2022-08-30T13:32:02.013Z,47.49
2022-08-30T13:36:09.938Z,48.46
2022-08-30T13:40:19.463Z,49.03
2022-08-30T13:44:27.579Z,48.92
2022-08-30T13:48:35.868Z,47.45
2022-08-30T13:52:44.177Z,48.10
2022-08-30T13:56:53.671Z,47.70
2022-08-30T14:01:02.313Z,46.47
2022-08-30T14:05:30.759Z,46.05
2022-08-30T14:09:40.766Z,45.07
2022-08-30T14:18:19.927Z,44.44
2022-08-30T14:22:31.757Z,44.92
2022-08-30T14:26:44.301Z,44.57
2022-08-30T14:30:53.528Z,44.74
2022-08-30T14:35:01.299Z,45.35
2022-08-30T14:39:12.200Z,45.47
2022-08-30T14:43:20.514Z,45.65
2022-08-30T14:47:29.727Z,45.54
2022-08-30T14:51:38.407Z,45.02
2022-08-30T14:55:46.646Z,45.66
2022-08-30T14:59:55.260Z,45.43
2022-08-30T15:08:35.995Z,45.91
2022-08-30T15:12:44.354Z,46.11
2022-08-30T15:16:53.485Z,46.32
2022-08-30T15:21:01.365Z,46.45
2022-08-30T15:25:11.246Z,46.48
2022-08-30T15:29:20.406Z,45.49
2022-08-30T15:33:28.428Z,45.87
2022-08-30T15:37:37.996Z,45.80
2022-08-30T15:41:46.746Z,45.00
2022-08-30T15:46:18.563Z,45.27
2022-08-30T15:50:26.735Z,45.15
2022-08-30T15:54:35.363Z,45.25
2022-08-30T15:58:44.517Z,45.85
2022-08-30T16:02:53.577Z,45.81
2022-08-30T16:07:02.782Z,46.49
2022-08-30T16:11:13.216Z,46.79
2022-08-30T16:15:21.764Z,46.90
2022-08-30T16:19:33.606Z,47.34
2022-08-30T16:23:44.152Z,48.18
2022-08-30T16:27:53.617Z,48.70
2022-08-30T16:32:00.985Z,49.48
2022-08-30T16:36:10.914Z,49.23
2022-08-30T16:40:19.165Z,49.97
2022-08-30T16:44:29.912Z,50.33
2022-08-30T16:48:37.984Z,52.05
2022-08-30T16:52:49.288Z,53.94
2022-08-30T16:56:57.274Z,55.10
2022-08-30T17:01:05.819Z,56.34
2022-08-30T17:05:16.214Z,57.28
2022-08-30T17:09:23.949Z,58.02
2022-08-30T17:13:35.489Z,59.13
2022-08-30T17:17:44.121Z,60.06
2022-08-30T17:21:51.698Z,60.50
2022-08-30T17:25:59.987Z,61.00
2022-08-30T17:30:10.935Z,61.32
2022-08-30T17:34:19.095Z,61.50
2022-08-30T17:38:27.737Z,61.30
2022-08-30T17:42:35.882Z,61.72
2022-08-30T17:46:43.961Z,62.17
2022-08-30T17:50:59.832Z,62.87
2022-08-30T17:55:08.951Z,63.36
2022-08-30T17:59:24.953Z,64.10
2022-08-30T18:03:33.722Z,64.75
2022-08-30T18:07:41.906Z,65.19
2022-08-30T18:11:49.548Z,65.55
2022-08-30T18:15:57.431Z,65.83
2022-08-30T18:20:07.602Z,66.13
2022-08-30T18:24:15.345Z,66.30
2022-08-30T18:28:23.970Z,66.28
2022-08-30T18:32:36.380Z,66.46
2022-08-30T18:36:48.051Z,66.85
2022-08-30T18:41:00.932Z,67.07
2022-08-30T18:45:14.928Z,67.43
2022-08-30T18:49:24.190Z,67.82
2022-08-30T18:53:32.388Z,68.08
2022-08-30T18:57:43.657Z,68.42
2022-08-30T19:01:52.129Z,68.46
2022-08-30T19:06:00.759Z,68.73
2022-08-30T19:10:12.432Z,68.75
2022-08-30T19:14:21.392Z,68.87
2022-08-30T19:18:28.951Z,69.05
2022-08-30T19:23:06.376Z,68.98
2022-08-30T19:27:10.693Z,69.25
2022-08-30T19:31:18.879Z,69.47
2022-08-30T19:39:55.680Z,70.23
2022-08-30T19:44:17.308Z,70.70
2022-08-30T19:48:32.091Z,70.87
2022-08-30T19:52:41.434Z,71.17
2022-08-30T19:56:49.649Z,71.57
2022-08-30T20:01:00.996Z,71.93
2022-08-30T20:05:21.308Z,72.12
2022-08-30T20:09:29.845Z,72.35
2022-08-30T20:13:37.831Z,72.57
2022-08-30T20:18:06.423Z,72.67
2022-08-30T20:22:19.824Z,73.07
2022-08-30T20:26:33.949Z,73.28
2022-08-30T20:30:44.355Z,73.47
2022-08-30T20:34:53.482Z,73.62
2022-08-30T20:39:09.689Z,73.69
2022-08-30T20:43:18.445Z,73.85
2022-08-30T20:47:26.944Z,73.68
2022-08-30T20:51:34.905Z,73.82
2022-08-30T20:55:45.513Z,73.64
2022-08-30T20:59:53.475Z,73.47
2022-08-30T21:04:01.573Z,73.43
2022-08-30T21:08:10.270Z,73.37
2022-08-30T21:12:18.199Z,73.64
2022-08-30T21:16:26.025Z,73.82
2022-08-30T21:20:34.445Z,73.90
2022-08-30T21:24:48.105Z,74.26
2022-08-30T21:28:58.187Z,74.42
2022-08-30T21:33:07.059Z,74.44
2022-08-30T21:37:16.508Z,74.85
2022-08-30T21:41:24.675Z,75.21
2022-08-30T21:45:35.403Z,75.46
2022-08-30T21:49:43.657Z,75.74
2022-08-30T21:53:51.514Z,76.08
2022-08-30T21:58:00.070Z,76.25
2022-08-30T22:02:09.244Z,76.88
2022-08-30T22:06:17.988Z,77.24
2022-08-30T22:10:32.414Z,77.52
2022-08-30T22:14:41.343Z,77.80
2022-08-30T22:18:49.890Z,78.13
2022-08-30T22:22:58.534Z,78.33
2022-08-30T22:27:07.441Z,78.67
2022-08-30T22:31:17.125Z,78.86
2022-08-30T22:35:25.821Z,79.05
2022-08-30T22:39:33.992Z,79.29
2022-08-30T22:43:42.726Z,79.80
2022-08-30T22:47:50.428Z,79.76
2022-08-30T22:51:57.866Z,79.45
2022-08-30T22:56:12.033Z,79.20
2022-08-30T23:00:21.413Z,78.87
2022-08-30T23:04:41.545Z,78.74
2022-08-30T23:08:49.476Z,78.73
2022-08-30T23:12:58.017Z,78.66
2022-08-30T23:17:06.756Z,78.67
2022-08-30T23:21:16.628Z,78.73
2022-08-30T23:25:44.457Z,78.75
2022-08-30T23:30:09.893Z,79.16
2022-08-30T23:34:35.359Z,79.45
2022-08-30T23:39:02.054Z,79.79
2022-08-30T23:43:29.932Z,79.96
2022-08-30T23:47:55.712Z,79.96
2022-08-30T23:52:21.107Z,80.01
2022-08-30T23:56:46.721Z,80.10
